createdAt,value
2022-12-13T00:00:46.147Z,2.93
2022-12-13T00:03:13.581Z,3.55
2022-12-13T00:05:43.000Z,3.71
2022-12-13T00:08:10.512Z,4.16
2022-12-13T00:10:37.945Z,3.79
2022-12-13T00:13:05.211Z,3.87
2022-12-13T00:15:32.368Z,4.01
2022-12-13T00:17:59.814Z,3.21
2022-12-13T00:20:26.980Z,3.55
2022-12-13T00:22:54.176Z,4.04
2022-12-13T00:25:21.741Z,3.84
2022-12-13T00:27:48.900Z,4.00
2022-12-13T00:30:16.084Z,4.13
2022-12-13T00:32:43.562Z,4.25
2022-12-13T00:35:10.729Z,3.74
2022-12-13T00:37:37.905Z,4.11
2022-12-13T00:40:05.497Z,3.97
2022-12-13T00:42:32.749Z,4.33
2022-12-13T00:44:59.927Z,4.02
2022-12-13T00:47:27.500Z,3.92
2022-12-13T00:49:54.770Z,3.89
2022-12-13T00:52:21.917Z,4.15
2022-12-13T00:54:49.448Z,3.47
2022-12-13T00:57:16.600Z,4.23
2022-12-13T00:59:43.781Z,3.98
2022-12-13T01:02:11.249Z,3.72
2022-12-13T01:04:38.426Z,3.83
2022-12-13T01:07:05.564Z,3.94
2022-12-13T01:09:33.813Z,3.96
2022-12-13T01:12:05.602Z,3.84
2022-12-13T01:14:36.326Z,3.84
2022-12-13T01:17:04.855Z,4.16
2022-12-13T01:19:32.803Z,4.34
2022-12-13T01:22:01.916Z,4.56
2022-12-13T01:24:29.823Z,4.46
2022-12-13T01:26:57.393Z,4.46
2022-12-13T01:29:26.007Z,4.45
2022-12-13T01:31:53.603Z,4.28
2022-12-13T01:34:21.864Z,4.25
2022-12-13T01:36:58.067Z,4.36
2022-12-13T01:39:26.536Z,4.36
2022-12-13T01:41:59.836Z,4.30
2022-12-13T01:44:46.210Z,3.98
2022-12-13T01:47:13.703Z,3.43
2022-12-13T01:49:41.313Z,3.92
2022-12-13T01:52:08.965Z,3.78
2022-12-13T01:54:37.573Z,3.62
2022-12-13T01:57:05.552Z,3.38
2022-12-13T01:59:33.898Z,3.92
2022-12-13T02:02:01.470Z,3.99
2022-12-13T02:04:30.555Z,4.04
2022-12-13T02:06:57.763Z,4.05
2022-12-13T02:09:24.926Z,3.91
2022-12-13T02:11:52.367Z,3.73
2022-12-13T02:14:19.560Z,3.56
2022-12-13T02:16:57.676Z,3.67
2022-12-13T02:19:35.155Z,3.80
2022-12-13T02:22:20.807Z,3.76
2022-12-13T02:24:56.416Z,4.08
2022-12-13T02:27:35.346Z,4.02
2022-12-13T02:30:30.542Z,3.77
2022-12-13T02:33:00.904Z,3.95
2022-12-13T02:35:31.883Z,4.01
2022-12-13T02:38:06.016Z,4.06
2022-12-13T02:40:35.052Z,4.29
2022-12-13T02:43:04.156Z,4.31
2022-12-13T02:45:32.607Z,4.49
2022-12-13T02:48:00.935Z,4.53
2022-12-13T02:50:28.965Z,4.24
2022-12-13T02:52:56.183Z,3.86
2022-12-13T02:55:27.949Z,4.07
2022-12-13T02:57:55.650Z,4.13
2022-12-13T03:00:27.836Z,4.07
2022-12-13T03:02:59.804Z,4.08
2022-12-13T03:06:04.363Z,4.05
2022-12-13T03:08:36.748Z,4.21
2022-12-13T03:11:08.688Z,4.39
2022-12-13T03:13:39.166Z,4.40
2022-12-13T03:16:25.223Z,4.24
2022-12-13T03:18:53.399Z,4.33
2022-12-13T03:21:22.278Z,4.35
2022-12-13T03:23:49.447Z,4.29
2022-12-13T03:26:24.417Z,4.13
2022-12-13T03:28:51.689Z,4.11
2022-12-13T03:31:19.366Z,3.96
2022-12-13T03:33:46.636Z,3.93
2022-12-13T03:36:13.805Z,3.94
2022-12-13T03:38:41.257Z,4.09
2022-12-13T03:41:12.520Z,4.17
2022-12-13T03:43:40.503Z,4.23
2022-12-13T03:46:08.408Z,3.70
2022-12-13T03:48:35.783Z,3.66
2022-12-13T03:51:03.325Z,3.69
2022-12-13T03:53:33.541Z,3.82
2022-12-13T03:56:05.881Z,3.96
2022-12-13T03:58:34.821Z,3.83
2022-12-13T04:01:06.256Z,3.42
2022-12-13T04:03:34.038Z,3.76
2022-12-13T04:06:01.204Z,4.05
2022-12-13T04:08:28.393Z,4.14
2022-12-13T04:10:55.848Z,4.25
2022-12-13T04:13:35.175Z,4.20
2022-12-13T04:16:03.060Z,4.13
2022-12-13T04:18:30.487Z,3.85
2022-12-13T04:20:58.135Z,3.98
2022-12-13T04:23:25.547Z,4.06
2022-12-13T04:25:52.723Z,4.11
2022-12-13T04:28:22.230Z,4.07
2022-12-13T04:30:53.430Z,4.16
2022-12-13T04:33:21.733Z,4.24
2022-12-13T04:35:49.270Z,4.17
2022-12-13T04:38:16.719Z,4.05
2022-12-13T04:40:43.866Z,4.07
2022-12-13T04:43:11.058Z,4.07
2022-12-13T04:45:38.526Z,3.87
2022-12-13T04:48:05.928Z,3.79
2022-12-13T04:50:33.281Z,3.79
2022-12-13T04:53:00.913Z,3.85
2022-12-13T04:55:28.155Z,3.91
2022-12-13T04:57:55.292Z,4.01
2022-12-13T05:00:23.341Z,3.98
2022-12-13T05:02:50.754Z,4.01
2022-12-13T05:05:18.544Z,3.91
2022-12-13T05:07:46.669Z,3.82
2022-12-13T05:10:31.975Z,3.75
2022-12-13T05:13:01.731Z,3.70
2022-12-13T05:15:30.193Z,3.72
2022-12-13T05:18:09.798Z,3.67
2022-12-13T05:20:39.361Z,3.66
2022-12-13T05:23:06.576Z,3.58
2022-12-13T05:25:34.573Z,3.61
2022-12-13T05:28:26.820Z,3.65
2022-12-13T05:30:49.321Z,3.36
2022-12-13T05:33:16.749Z,3.25
2022-12-13T05:35:46.655Z,3.32
2022-12-13T05:38:13.989Z,3.41
2022-12-13T05:40:41.448Z,3.19
2022-12-13T05:43:22.090Z,3.19
2022-12-13T05:45:50.400Z,3.41
2022-12-13T05:48:24.548Z,3.43
2022-12-13T05:51:10.815Z,3.33
2022-12-13T05:53:42.054Z,3.24
2022-12-13T05:56:10.449Z,3.29
2022-12-13T05:58:38.313Z,3.13
2022-12-13T06:01:13.452Z,3.21
2022-12-13T06:03:41.689Z,3.13
2022-12-13T06:06:09.794Z,3.25
2022-12-13T06:08:37.126Z,3.25
2022-12-13T06:11:11.242Z,3.42
2022-12-13T06:13:43.972Z,3.47
2022-12-13T06:16:23.043Z,3.36
2022-12-13T06:19:03.296Z,3.10
2022-12-13T06:21:41.228Z,3.06
2022-12-13T06:24:13.720Z,3.42
2022-12-13T06:26:41.141Z,3.58
2022-12-13T06:29:08.297Z,3.69
2022-12-13T06:31:35.494Z,3.75
2022-12-13T06:34:14.910Z,3.62
2022-12-13T06:36:42.854Z,3.63
2022-12-13T06:39:11.012Z,3.67
2022-12-13T06:41:38.213Z,3.77
2022-12-13T06:44:05.351Z,3.93
2022-12-13T06:46:33.040Z,4.07
2022-12-13T06:49:00.346Z,4.42
2022-12-13T06:51:32.597Z,5.79
2022-12-13T06:54:02.320Z,6.63
2022-12-13T06:56:30.128Z,6.82
2022-12-13T06:59:01.388Z,6.53
2022-12-13T07:01:37.431Z,7.05
2022-12-13T07:04:29.007Z,7.72
2022-12-13T07:07:01.301Z,8.01
2022-12-13T07:09:32.467Z,7.92
2022-12-13T07:11:59.924Z,7.39
2022-12-13T07:14:27.093Z,7.50
2022-12-13T07:16:59.583Z,7.92
2022-12-13T07:19:42.201Z,8.07
2022-12-13T07:22:09.420Z,8.07
2022-12-13T07:24:36.866Z,8.36
2022-12-13T07:27:04.425Z,8.92
2022-12-13T07:29:31.609Z,9.30
2022-12-13T07:32:01.335Z,10.68
2022-12-13T07:34:29.771Z,11.51
2022-12-13T07:36:56.954Z,12.02
2022-12-13T07:39:26.229Z,12.02
2022-12-13T07:41:55.113Z,13.53
2022-12-13T07:44:22.360Z,13.98
2022-12-13T07:46:49.877Z,12.81
2022-12-13T07:49:17.513Z,12.10
2022-12-13T07:51:44.672Z,12.05
2022-12-13T07:54:12.278Z,12.26
2022-12-13T07:56:39.672Z,11.78
2022-12-13T07:59:06.812Z,11.48
2022-12-13T08:01:34.836Z,12.02
2022-12-13T08:04:03.026Z,12.65
2022-12-13T08:06:34.284Z,12.49
2022-12-13T08:09:01.403Z,12.28
2022-12-13T08:11:29.016Z,12.00
2022-12-13T08:13:56.186Z,11.94
2022-12-13T08:16:26.425Z,11.98
2022-12-13T08:19:02.424Z,12.17
2022-12-13T08:24:23.850Z,12.69
2022-12-13T08:26:51.055Z,13.08
2022-12-13T08:29:22.258Z,12.95
2022-12-13T08:31:51.167Z,13.02
2022-12-13T08:34:18.596Z,12.68
2022-12-13T08:36:45.718Z,13.13
2022-12-13T08:39:13.177Z,13.30
2022-12-13T08:41:40.573Z,13.38
2022-12-13T08:44:07.756Z,13.43
2022-12-13T08:46:35.212Z,12.74
2022-12-13T08:49:02.451Z,12.46
2022-12-13T08:51:35.579Z,11.97
2022-12-13T08:54:11.115Z,11.61
2022-12-13T08:56:38.900Z,11.75
2022-12-13T08:59:11.342Z,12.40
2022-12-13T09:01:38.563Z,12.33
2022-12-13T09:04:05.761Z,14.13
2022-12-13T09:06:33.210Z,16.01
2022-12-13T09:09:00.403Z,14.94
2022-12-13T09:11:33.232Z,15.05
2022-12-13T09:14:05.920Z,13.98
2022-12-13T09:16:36.466Z,14.68
2022-12-13T09:19:25.438Z,16.24
2022-12-13T09:22:02.550Z,17.18
2022-12-13T09:24:36.280Z,16.65
2022-12-13T09:27:09.277Z,15.78
2022-12-13T09:29:37.820Z,15.30
2022-12-13T09:32:05.505Z,14.74
2022-12-13T09:34:36.214Z,14.13
2022-12-13T09:37:03.382Z,14.04
2022-12-13T09:39:30.853Z,14.62
2022-12-13T09:42:01.372Z,15.42
2022-12-13T09:44:30.880Z,16.36
2022-12-13T09:47:01.519Z,16.43
2022-12-13T09:49:35.288Z,16.42
2022-12-13T09:52:10.656Z,16.47
2022-12-13T09:54:47.763Z,16.74
2022-12-13T09:57:30.644Z,16.44
2022-12-13T10:00:01.789Z,16.40
2022-12-13T10:02:40.167Z,15.96
2022-12-13T10:05:23.308Z,16.29
2022-12-13T10:07:51.512Z,16.19
2022-12-13T10:10:19.052Z,16.80
2022-12-13T10:12:47.720Z,17.35
2022-12-13T10:15:22.289Z,17.77
2022-12-13T10:17:54.848Z,19.47
2022-12-13T10:20:25.917Z,19.94
2022-12-13T10:23:30.229Z,20.44
2022-12-13T10:25:45.050Z,20.64
2022-12-13T10:28:12.588Z,20.39
2022-12-13T10:30:40.622Z,20.91
2022-12-13T10:33:12.855Z,21.09
2022-12-13T10:35:40.945Z,20.40
2022-12-13T10:38:08.030Z,19.08
2022-12-13T10:40:36.196Z,17.85
2022-12-13T10:43:07.645Z,17.18
2022-12-13T10:45:34.974Z,16.15
2022-12-13T10:48:04.392Z,16.94
2022-12-13T10:50:32.164Z,17.18
2022-12-13T10:53:00.147Z,17.97
2022-12-13T10:55:30.991Z,18.85
2022-12-13T10:57:59.811Z,20.30
2022-12-13T11:00:32.062Z,20.76
2022-12-13T11:02:59.639Z,20.31
2022-12-13T11:05:30.782Z,19.18
2022-12-13T11:08:11.838Z,19.73
2022-12-13T11:10:39.288Z,20.11
2022-12-13T11:13:06.685Z,20.83
2022-12-13T11:15:35.642Z,21.13
2022-12-13T11:18:04.790Z,20.74
2022-12-13T11:20:34.182Z,19.68
2022-12-13T11:23:03.033Z,19.20
2022-12-13T11:25:43.285Z,18.46
2022-12-13T11:28:26.749Z,18.09
2022-12-13T11:31:08.553Z,17.28
2022-12-13T11:33:48.426Z,16.74
2022-12-13T11:36:25.749Z,15.98
2022-12-13T11:38:59.097Z,15.50
2022-12-13T11:41:48.971Z,15.02
2022-12-13T11:44:34.520Z,14.38
2022-12-13T11:47:02.014Z,13.46
2022-12-13T11:49:39.256Z,13.36
2022-12-13T11:52:15.874Z,12.79
2022-12-13T11:54:46.040Z,12.07
2022-12-13T11:57:17.419Z,11.95
2022-12-13T11:59:45.565Z,11.01
2022-12-13T12:02:17.124Z,11.35
2022-12-13T12:04:48.210Z,11.43
2022-12-13T12:07:32.472Z,11.12
2022-12-13T12:10:03.661Z,11.58
2022-12-13T12:12:35.064Z,10.97
2022-12-13T12:15:05.258Z,11.52
2022-12-13T12:17:42.587Z,11.15
2022-12-13T12:20:13.496Z,11.18
2022-12-13T12:22:43.674Z,11.06
2022-12-13T12:25:32.288Z,10.98
2022-12-13T12:28:28.976Z,10.99
2022-12-13T12:30:56.736Z,10.56
2022-12-13T12:33:32.752Z,10.72
2022-12-13T12:36:18.763Z,10.29
2022-12-13T12:39:04.788Z,10.11
2022-12-13T12:41:45.272Z,10.11
2022-12-13T12:44:34.465Z,9.35
2022-12-13T12:49:57.849Z,10.36
2022-12-13T12:52:28.111Z,10.41
2022-12-13T12:55:03.598Z,10.29
2022-12-13T12:58:04.012Z,10.17
2022-12-13T13:00:35.296Z,10.33
2022-12-13T13:03:18.873Z,10.31
2022-12-13T13:06:02.123Z,10.39
2022-12-13T13:08:40.682Z,10.24
2022-12-13T13:11:24.414Z,9.80
2022-12-13T13:14:01.747Z,10.31
2022-12-13T13:16:38.369Z,10.67
2022-12-13T13:19:06.244Z,10.67
2022-12-13T13:21:34.587Z,10.60
2022-12-13T13:24:01.890Z,10.45
2022-12-13T13:26:35.869Z,10.31
2022-12-13T13:29:27.308Z,10.41
2022-12-13T13:32:28.853Z,10.52
2022-12-13T13:35:16.670Z,10.65
2022-12-13T13:37:48.689Z,10.76
2022-12-13T13:40:31.758Z,10.69
2022-12-13T13:43:05.367Z,10.15
2022-12-13T13:45:51.541Z,10.14
2022-12-13T13:48:29.007Z,10.28
2022-12-13T13:50:56.338Z,10.54
2022-12-13T13:53:24.049Z,10.56
2022-12-13T13:56:02.215Z,10.57
2022-12-13T13:58:29.806Z,10.52
2022-12-13T14:01:15.712Z,10.49
2022-12-13T14:03:50.585Z,10.38
2022-12-13T14:06:18.689Z,10.36
2022-12-13T14:08:50.460Z,9.99
2022-12-13T14:11:24.576Z,10.10
2022-12-13T14:14:04.189Z,10.15
2022-12-13T14:16:31.355Z,10.23
2022-12-13T14:19:01.559Z,10.13
2022-12-13T14:21:37.891Z,10.16
2022-12-13T14:24:12.477Z,10.15
2022-12-13T14:26:55.029Z,10.16
2022-12-13T14:29:29.568Z,10.10
2022-12-13T14:31:57.068Z,10.00
2022-12-13T14:34:25.741Z,9.99
2022-12-13T14:36:56.779Z,9.96
2022-12-13T14:39:26.091Z,9.87
2022-12-13T14:41:56.773Z,9.85
2022-12-13T14:44:26.784Z,9.85
2022-12-13T14:47:00.967Z,9.75
2022-12-13T14:49:29.324Z,9.61
2022-12-13T14:52:03.739Z,9.50
2022-12-13T14:54:41.736Z,9.15
2022-12-13T14:57:20.517Z,9.29
2022-12-13T14:59:50.559Z,9.30
2022-12-13T15:02:30.942Z,9.33
2022-12-13T15:05:03.915Z,9.30
2022-12-13T15:07:32.052Z,9.26
2022-12-13T15:10:03.719Z,9.24
2022-12-13T15:12:32.175Z,9.18
2022-12-13T15:15:00.127Z,9.08
2022-12-13T15:17:28.791Z,9.04
2022-12-13T15:20:00.714Z,8.79
2022-12-13T15:22:29.455Z,8.81
2022-12-13T15:25:00.137Z,8.72
2022-12-13T15:27:41.682Z,8.64
2022-12-13T15:30:15.659Z,8.26
2022-12-13T15:33:01.793Z,8.29
2022-12-13T15:35:28.980Z,8.54
2022-12-13T15:37:56.414Z,8.46
2022-12-13T15:40:25.175Z,8.43
2022-12-13T15:42:52.319Z,8.44
2022-12-13T15:45:29.230Z,8.46
2022-12-13T15:48:00.463Z,8.61
2022-12-13T15:50:35.419Z,8.69
2022-12-13T15:53:04.005Z,8.70
2022-12-13T15:55:38.363Z,8.73
2022-12-13T15:58:17.514Z,8.73
2022-12-13T16:00:48.706Z,8.75
2022-12-13T16:03:20.376Z,8.72
2022-12-13T16:05:59.021Z,8.79
2022-12-13T16:08:29.897Z,8.75
2022-12-13T16:11:00.304Z,8.67
2022-12-13T16:13:34.421Z,8.39
2022-12-13T16:16:09.628Z,7.77
2022-12-13T16:18:51.913Z,8.33
2022-12-13T16:21:19.305Z,8.14
2022-12-13T16:23:48.443Z,8.08
2022-12-13T16:26:21.317Z,8.10
2022-12-13T16:28:48.859Z,8.37
2022-12-13T16:31:17.476Z,8.29
2022-12-13T16:33:45.601Z,8.35
2022-12-13T16:36:13.137Z,8.39
2022-12-13T16:38:40.277Z,8.48
2022-12-13T16:41:08.387Z,8.56
2022-12-13T16:43:40.683Z,8.45
2022-12-13T16:47:11.875Z,8.37
2022-12-13T16:48:55.365Z,8.38
2022-12-13T16:51:22.737Z,8.53
2022-12-13T16:53:49.937Z,8.45
2022-12-13T16:56:21.794Z,8.28
2022-12-13T16:58:50.512Z,8.08
2022-12-13T17:01:19.835Z,7.96
2022-12-13T17:03:47.542Z,7.97
2022-12-13T17:06:15.043Z,8.22
2022-12-13T17:08:42.752Z,8.13
2022-12-13T17:11:14.596Z,8.28
2022-12-13T17:13:44.994Z,8.26
2022-12-13T17:16:12.376Z,8.13
2022-12-13T17:18:42.990Z,7.88
2022-12-13T17:21:11.128Z,8.03
2022-12-13T17:23:38.349Z,8.02
2022-12-13T17:26:09.907Z,8.09
2022-12-13T17:28:37.650Z,8.10
2022-12-13T17:31:06.399Z,7.86
2022-12-13T17:33:34.030Z,7.93
2022-12-13T17:36:03.308Z,7.70
2022-12-13T17:38:31.243Z,7.70
2022-12-13T17:41:00.730Z,7.78
2022-12-13T17:43:34.690Z,7.85
2022-12-13T17:46:03.776Z,7.67
2022-12-13T17:48:37.793Z,7.45
2022-12-13T17:51:08.422Z,7.22
2022-12-13T17:53:36.442Z,7.20
2022-12-13T17:56:04.678Z,7.35
2022-12-13T17:58:32.286Z,7.14
2022-12-13T18:00:59.993Z,7.25
2022-12-13T18:03:27.953Z,7.42
2022-12-13T18:05:56.874Z,7.12
2022-12-13T18:08:24.278Z,7.34
2022-12-13T18:11:08.640Z,7.56
2022-12-13T18:13:40.404Z,7.49
2022-12-13T18:16:08.750Z,7.29
2022-12-13T18:18:35.969Z,6.93
2022-12-13T18:21:14.239Z,6.93
2022-12-13T18:23:41.965Z,6.91
2022-12-13T18:26:10.219Z,7.10
2022-12-13T18:28:38.236Z,7.14
2022-12-13T18:31:07.672Z,6.92
2022-12-13T18:33:35.817Z,6.65
2022-12-13T18:36:03.330Z,6.68
2022-12-13T18:38:36.520Z,6.51
2022-12-13T18:41:15.420Z,6.62
2022-12-13T18:43:43.498Z,6.81
2022-12-13T18:46:11.210Z,6.94
2022-12-13T18:48:38.678Z,7.10
2022-12-13T18:51:07.581Z,7.14
2022-12-13T18:53:35.165Z,7.13
2022-12-13T18:56:03.417Z,6.98
2022-12-13T18:58:34.089Z,6.68
2022-12-13T19:01:01.938Z,6.74
2022-12-13T19:03:29.995Z,6.37
2022-12-13T19:05:58.378Z,6.21
2022-12-13T19:08:28.803Z,6.23
2022-12-13T19:10:56.957Z,6.46
2022-12-13T19:13:25.608Z,6.41
2022-12-13T19:15:53.824Z,6.18
2022-12-13T19:18:21.096Z,6.16
2022-12-13T19:20:52.237Z,6.06
2022-12-13T19:23:19.801Z,5.97
2022-12-13T19:25:48.752Z,5.81
2022-12-13T19:28:17.639Z,5.46
2022-12-13T19:30:46.029Z,5.36
2022-12-13T19:33:13.881Z,5.56
2022-12-13T19:35:43.365Z,5.67
2022-12-13T19:38:10.699Z,5.68
2022-12-13T19:40:39.016Z,5.88
2022-12-13T19:43:06.942Z,5.87
2022-12-13T19:45:34.404Z,5.74
2022-12-13T19:48:01.558Z,5.84
2022-12-13T19:50:29.517Z,5.59
2022-12-13T19:52:56.960Z,5.37
2022-12-13T19:55:24.115Z,5.00
2022-12-13T19:57:51.788Z,4.82
2022-12-13T20:00:19.026Z,4.54
2022-12-13T20:02:46.791Z,4.79
2022-12-13T20:05:34.018Z,4.86
2022-12-13T20:08:01.569Z,4.49
2022-12-13T20:10:29.024Z,4.72
2022-12-13T20:13:16.213Z,4.77
2022-12-13T20:15:47.300Z,5.05
2022-12-13T20:18:15.295Z,4.94
2022-12-13T20:21:14.160Z,5.01
2022-12-13T20:23:48.789Z,5.11
2022-12-13T20:26:18.908Z,4.98
2022-12-13T20:28:46.359Z,4.84
2022-12-13T20:31:18.520Z,5.09
2022-12-13T20:33:45.751Z,5.08
2022-12-13T20:36:24.193Z,5.04
2022-12-13T20:38:56.975Z,4.88
2022-12-13T20:41:25.486Z,4.80
2022-12-13T20:43:53.604Z,3.99
2022-12-13T20:46:21.436Z,4.22
2022-12-13T20:48:49.215Z,4.54
2022-12-13T20:51:21.260Z,4.34
2022-12-13T20:53:49.246Z,4.29
2022-12-13T20:56:20.854Z,4.26
2022-12-13T20:58:48.115Z,4.11
2022-12-13T21:01:37.895Z,3.96
2022-12-13T21:04:06.513Z,3.69
2022-12-13T21:06:36.034Z,3.36
2022-12-13T21:09:03.851Z,3.19
2022-12-13T21:11:37.315Z,3.02
2022-12-13T21:14:12.375Z,2.93
2022-12-13T21:16:45.267Z,2.94
2022-12-13T21:19:17.085Z,2.36
2022-12-13T21:21:44.272Z,2.90
2022-12-13T21:24:12.920Z,2.98
2022-12-13T21:26:40.512Z,3.00
2022-12-13T21:29:08.013Z,3.19
2022-12-13T21:31:35.497Z,3.19
2022-12-13T21:34:03.514Z,3.39
2022-12-13T21:36:31.976Z,3.46
2022-12-13T21:39:00.654Z,3.47
2022-12-13T21:41:28.312Z,3.48
2022-12-13T21:43:55.572Z,3.53
2022-12-13T21:46:25.938Z,3.41
2022-12-13T21:48:56.996Z,3.42
2022-12-13T21:51:24.497Z,3.20
2022-12-13T21:53:52.096Z,2.89
2022-12-13T21:56:39.337Z,3.14
2022-12-13T21:59:17.012Z,3.01
2022-12-13T22:02:03.072Z,2.91
2022-12-13T22:04:30.688Z,3.07
2022-12-13T22:06:57.926Z,3.07
2022-12-13T22:09:25.107Z,3.10
2022-12-13T22:11:52.672Z,3.16
2022-12-13T22:14:19.886Z,3.16
2022-12-13T22:16:47.254Z,3.02
2022-12-13T22:19:15.531Z,3.16
2022-12-13T22:21:42.708Z,3.26
2022-12-13T22:24:09.922Z,3.15
2022-12-13T22:26:37.701Z,3.21
2022-12-13T22:29:04.955Z,3.02
2022-12-13T22:31:32.448Z,3.08
2022-12-13T22:33:59.925Z,3.13
2022-12-13T22:36:27.122Z,3.13
2022-12-13T22:38:54.339Z,3.13
2022-12-13T22:41:21.826Z,3.12
2022-12-13T22:43:49.129Z,3.06
2022-12-13T22:46:17.424Z,3.24
2022-12-13T22:48:45.477Z,3.24
2022-12-13T22:51:13.748Z,3.25
2022-12-13T22:53:41.434Z,3.18
2022-12-13T22:56:27.051Z,3.16
2022-12-13T22:58:54.705Z,3.15
2022-12-13T23:01:23.194Z,3.12
2022-12-13T23:03:50.550Z,3.01
2022-12-13T23:06:19.145Z,3.09
2022-12-13T23:08:48.992Z,3.02
2022-12-13T23:11:34.932Z,3.13
2022-12-13T23:14:03.012Z,3.29
2022-12-13T23:16:30.945Z,3.30
2022-12-13T23:19:24.107Z,3.41
2022-12-13T23:21:48.584Z,3.25
2022-12-13T23:24:15.958Z,3.42
2022-12-13T23:26:43.093Z,3.36
2022-12-13T23:29:10.891Z,3.46
2022-12-13T23:31:39.221Z,3.52
2022-12-13T23:34:06.622Z,3.58
2022-12-13T23:36:34.178Z,3.68
2022-12-13T23:39:02.125Z,3.62
2022-12-13T23:41:33.690Z,3.63
2022-12-13T23:44:01.601Z,3.73
2022-12-13T23:46:30.192Z,3.45
2022-12-13T23:48:57.999Z,3.65
2022-12-13T23:51:25.881Z,3.41
2022-12-13T23:53:53.231Z,2.92
2022-12-13T23:56:20.841Z,3.42
2022-12-13T23:58:48.491Z,3.27
